Lake Tacoma, Illinois
Current Conditions -  °F | °C
As of 1:41 AM on Thursday 23 Oct 2014 (Local Time) from KMDH Reporting Station
Haze Haze  
Wind Chill: 36°   Ceiling: Unl
Heat Index: 36°   Visibility: 3mi
Dew Point: 34°   Wind: 0mph
Humidity: 93%   Direction: NA
Pressure: 30.23"   Gusts: NA
Location:  37.7248°N, 89.197°W
Report Text: KMDH 230641Z AUTO 00000KT 3SM BR CLR 02/01 A3023 RMK AO2 T00220011
Loading
Personal Weather Stations






























Interactive Weather Map New forecast layout! Learn more

10-Day Weather Forecast

Advertisements
Track Severe Weather on mobile